• Join FlightAware (Why Join?)
  • Login
  • US Flag 
09:22PM EDT


 

Airport Tracker/Info


-or-


 

Live Flight TrackerFlight Track Log ✈ AMX466 ✈ 25-Jun-2013 ✈ MMGL / GDL - KLAX

Flight Track Log - Related Links

Times and Time Zones

All times are in EDT time to prevent confusion due to time zone crossing. See the AMX466 flight status page for this flight to view local times or setup timezone preferences in your user account.

Time Position Orientation Groundspeed Altitude Reporting Facility
EDT Latitude Longitude Course Direction KTS MPH feet Rate Location/Type
11:51PM 20.5300 -103.3270 205° Southwest 10 12  Level FlightAware
11:52PM 20.5280 -103.3270 180° South 25 29 2,760 Level FlightAware
11:53PM 20.5280 -103.3250 90° East 46 53 5,100 Level FlightAware
11:53PM 20.5220 -103.3110 115° Southeast 160 184 6,060 Level FlightAware
11:54PM 20.5120 -103.2870 114° Southeast 185 213 5,800 6,900 Climbing FlightAware
11:54PM 20.5020 -103.2630 114° Southeast 204 235 6,600 1,920 Climbing FlightAware
11:54PM 20.4900 -103.2340 114° Southeast 222 255 7,600 2,340 Climbing FlightAware
11:55PM 20.4780 -103.2060 115° Southeast 224 258 8,800 2,640 Climbing FlightAware
11:55PM 20.4770 -103.1960 96° East 222 255 9,300 2,520 Climbing FlightAware
11:56PM 20.4940 -103.1680 57° Northeast 236 272 10,500 2,160 Climbing FlightAware
11:56PM 20.5110 -103.1630 15° North 245 282 11,000 1,500 Climbing FlightAware
11:56PM 20.5410 -103.1780 335° Northwest 280 322 11,600 1,500 Climbing FlightAware
11:57PM 20.5770 -103.2240 310° West 315 362 12,700 2,040 Climbing FlightAware
11:58PM 20.6200 -103.2780 310° West 329 379 14,500 1,980 Climbing FlightAware
11:58PM 20.6620 -103.3290 311° West 361 415 15,500 1,620 Climbing FlightAware
11:59PM 20.7140 -103.3930 311° West 388 447 16,800 1,920 Climbing FlightAware
12:00AM 20.7440 -103.4290 312° West 381 438 18,100 1,800 Climbing FlightAware
12:01AM 20.8430 -103.5670 308° West 390 449 20,400 2,040 Climbing FlightAware
12:02AM 20.8640 -103.6390 287° West 375 432 22,300 2,280 Climbing FlightAware
12:03AM 20.8820 -103.7220 283° West 384 442 23,700 1,620 Climbing FlightAware
12:03AM 20.8970 -103.7970 282° West 393 452 24,700 1,560 Climbing FlightAware
12:04AM 20.9250 -103.8780 290° West 396 456 25,900 1,680 Climbing FlightAware
12:05AM 20.9730 -103.9380 311° West 394 453 27,100 1,740 Climbing FlightAware
12:05AM 21.0340 -103.9790 328° Northwest 388 447 28,300 1,740 Climbing FlightAware
12:06AM 21.1060 -104.0210 331° Northwest 384 442 29,600 1,680 Climbing FlightAware
12:07AM 21.1690 -104.0570 332° Northwest 381 438 30,700 1,440 Climbing FlightAware
12:07AM 21.2370 -104.0870 338° Northwest 378 435 31,600 900 Climbing FlightAware
12:08AM 21.3090 -104.1180 338° Northwest 393 452 32,000 420 Climbing FlightAware
12:09AM 21.3800 -104.1440 341° North 413 475 32,200 240 Climbing FlightAware
12:10AM 21.4760 -104.1770 342° North 418 481 32,400 120 Climbing FlightAware
12:10AM 21.5320 -104.1970 342° North 418 481 32,400  Level FlightAware
12:11AM 21.5960 -104.2190 342° North 418 481 32,400 2,100 Level FlightAware
12:12AM 21.7190 -104.2470 348° North 405 466 35,600 2,400 Climbing FlightAware
12:13AM 21.7920 -104.2640 348° North 405 466 36,000 240 Climbing FlightAware
12:13AM 21.8710 -104.2830 347° North 415 478 36,000  Level FlightAware
12:14AM 21.9510 -104.3020 348° North 426 490 36,000  Level FlightAware
12:16AM 22.1740 -104.3850 317° Northwest 428 493 36,000  Level FlightAware
12:17AM 22.2023 -104.5549 317° Northwest  Level Estimated
12:17AM 22.2760 -104.4280 339° North 428 493 36,000  Level FlightAware
12:18AM 22.3300 -104.4500 339° North 428 493 36,000  Level FlightAware
12:19AM 22.4040 -104.4810 339° North 428 493 36,000  Level FlightAware
12:19AM 22.4600 -104.5040 339° North 428 493 36,000  Level FlightAware
12:20AM 22.5370 -104.5360 339° North 428 493 36,000  Level FlightAware
12:21AM 22.5920 -104.5590 339° North 428 493 36,000  Level FlightAware
12:21AM 22.6690 -104.5910 339° North 428 493 36,000  Level FlightAware
12:22AM 22.7260 -104.6150 339° North 428 493 36,000  Level FlightAware
12:23AM 22.8000 -104.6450 340° North 428 493 36,000  Level FlightAware
12:23AM 22.8580 -104.6700 338° Northwest 428 493 36,000  Level FlightAware
12:24AM 22.9330 -104.7010 339° North 428 493 36,000  Level FlightAware
12:27AM 23.1432 -104.9257 316° Northwest  Level Estimated
12:28AM 23.2379 -105.0272 315° West  Level Estimated
12:29AM 23.3326 -105.1290 315° West  Level Estimated
12:30AM 23.4272 -105.2308 315° West  Level Estimated
12:30AM 23.4600 -105.5300 315° West 427 491 36,000  Level FlightAware
12:31AM 23.5420 -105.5630 340° North 427 491 36,000  Level FlightAware
12:31AM 23.6200 -105.5940 340° North 429 494 36,000  Level FlightAware
12:32AM 23.7050 -105.6280 340° North 428 493 36,000  Level FlightAware
12:33AM 23.7790 -105.6580 340° North 430 495 36,000  Level FlightAware
12:33AM 23.8470 -105.6880 338° Northwest 429 494 36,000  Level FlightAware
12:34AM 23.9240 -105.7500 324° Northwest 424 488 36,000  Level FlightAware
12:35AM 23.9860 -105.8010 323° Northwest 421 484 36,000  Level FlightAware
12:35AM 24.0530 -105.8590 322° Northwest 421 484 36,000  Level FlightAware
12:36AM 24.1140 -105.9120 322° Northwest 421 484 36,000  Level FlightAware
12:37AM 24.1770 -105.9660 322° Northwest 429 494 36,000 120 Level FlightAware
12:38AM 24.2530 -106.0320 322° Northwest 445 512 36,200 540 Climbing FlightAware
12:38AM 24.3180 -106.0850 323° Northwest 444 511 36,800 780 Climbing FlightAware
12:39AM 24.3940 -106.1210 337° Northwest 446 513 37,300 660 Climbing FlightAware
12:40AM 24.4820 -106.1470 345° North 444 511 37,800 480 Climbing FlightAware
12:40AM 24.5650 -106.1720 345° North 445 512 38,000 120 Climbing FlightAware
12:41AM 24.6530 -106.1990 344° North 446 513 38,000  Level FlightAware
12:42AM 24.7330 -106.2240 344° North 445 512 38,000  Level FlightAware
12:42AM 24.8050 -106.2460 344° North 446 513 38,000  Level FlightAware
12:43AM 24.9010 -106.2760 344° North 447 514 38,000  Level FlightAware
12:44AM 24.9760 -106.2990 344° North 449 517 38,000  Level FlightAware
12:45AM 25.0670 -106.3270 344° North 450 518 38,000  Level FlightAware
12:45AM 25.1580 -106.3540 345° North 450 518 38,000  Level FlightAware
12:46AM 25.2370 -106.3750 346° North 449 517 38,000  Level FlightAware
12:47AM 25.3190 -106.3970 346° North 447 514 38,000  Level FlightAware
12:47AM 25.4020 -106.4190 347° North 446 513 38,000  Level FlightAware
12:48AM 25.4920 -106.4470 344° North 444 511 38,000  Level FlightAware
12:49AM 25.5770 -106.4780 342° North 443 510 38,000  Level FlightAware
12:49AM 25.6410 -106.5060 338° Northwest 442 509 38,000  Level FlightAware
12:50AM 25.7380 -106.5480 339° North 444 511 38,000  Level FlightAware
12:51AM 25.8150 -106.5810 339° North 446 513 38,000  Level FlightAware
12:52AM 25.8990 -106.6170 339° North 447 514 38,000  Level FlightAware
12:52AM 25.9730 -106.6590 333° Northwest 441 507 38,000  Level FlightAware
12:53AM 26.0340 -106.7230 317° Northwest 439 505 38,000  Level FlightAware
12:54AM 26.0910 -106.7880 314° West 439 505 38,000  Level FlightAware
12:54AM 26.1540 -106.8590 315° West 439 505 38,000  Level FlightAware
12:55AM 26.1870 -106.8980 313° West 441 507 38,000  Level FlightAware
12:56AM 26.2500 -106.9690 315° West 440 506 38,000  Level FlightAware
12:56AM 26.3100 -107.0380 314° West 439 505 38,000  Level FlightAware
12:57AM 26.3700 -107.1070 314° West 441 507 38,000  Level FlightAware
12:58AM 26.4320 -107.1800 313° West 441 507 38,000  Level FlightAware
12:58AM 26.4940 -107.2500 315° West 443 510 38,000  Level FlightAware
12:59AM 26.5510 -107.3170 314° West 443 510 38,000  Level FlightAware
01:00AM 26.6140 -107.3890 314° West 444 511 38,000  Level FlightAware
01:00AM 26.6680 -107.4530 313° West 443 510 38,000  Level FlightAware
01:01AM 26.7330 -107.5270 315° West 441 507 38,000  Level FlightAware
01:02AM 26.7910 -107.5950 314° West 439 505 38,000  Level FlightAware
01:03AM 26.8480 -107.6610 314° West 439 505 38,000  Level FlightAware
01:03AM 26.9080 -107.7330 313° West 439 505 38,000  Level FlightAware
01:04AM 26.9840 -107.8210 314° West 440 506 38,000  Level FlightAware
01:05AM 27.0460 -107.8940 314° West 442 509 38,000  Level FlightAware
01:06AM 27.1050 -107.9630 314° West 443 510 38,000  Level FlightAware
01:06AM 27.1670 -108.0360 314° West 445 512 38,000  Level FlightAware
01:07AM 27.2420 -108.1240 314° West 448 516 38,000  Level FlightAware
01:08AM 27.3030 -108.1960 314° West 450 518 38,000  Level FlightAware
01:09AM 27.3490 -108.2510 313° West 450 518 38,000  Level FlightAware
01:09AM 27.4040 -108.3180 313° West 450 518 38,000  Level FlightAware
01:10AM 27.5040 -108.4340 314° West 453 521 38,000  Level FlightAware
01:11AM 27.5500 -108.4900 313° West 453 521 38,000  Level FlightAware
01:12AM 27.5940 -108.5430 313° West 453 521 38,000  Level FlightAware
01:12AM 27.6530 -108.6150 313° West 453 521 38,000  Level FlightAware
01:13AM 27.6940 -108.6650 313° West 453 521 38,000  Level FlightAware
01:14AM 27.7510 -108.7340 313° West 453 521 38,000  Level FlightAware
01:15AM 27.8240 -108.8220 313° West 453 521 38,000  Level FlightAware
01:15AM 27.8680 -108.8750 313° West 453 521 38,000  Level FlightAware
01:16AM 27.9260 -108.9460 313° West 453 521 38,000  Level FlightAware
01:17AM 27.9710 -109.0010 313° West 453 521 38,000  Level FlightAware
01:18AM 28.0300 -109.0720 313° West 453 521 38,000  Level FlightAware
01:18AM 28.0730 -109.1250 313° West 453 521 38,000  Level FlightAware
01:19AM 28.1330 -109.1970 313° West 453 521 38,000  Level FlightAware
01:20AM 28.1770 -109.2500 313° West 453 521 38,000  Level FlightAware
01:22AM 28.7761 -110.1097 309° West  Level Estimated
01:23AM 29.0812 -110.5543 308° West  Level Estimated
01:24AM 29.3848 -111.0016 308° West  Level Estimated
01:25AM 29.6870 -111.4516 308° West  Level Estimated
01:26AM 29.9876 -111.9043 308° West  Level Estimated
01:27AM 30.2866 -112.3597 307° West  Level Estimated
01:28AM 30.5841 -112.8180 307° West  Level Estimated
01:29AM 30.8799 -113.2790 307° West  Level Estimated
01:29AM 29.1120 -110.3890 307° West 445 512 38,000  Level FlightAware
01:30AM 29.1520 -110.4380 313° West 444 511 38,000  Level FlightAware
01:30AM 29.2090 -110.5100 312° West 441 507 38,000  Level FlightAware
01:31AM 29.2690 -110.5850 313° West 439 505 38,000  Level FlightAware
01:32AM 29.3250 -110.6540 313° West 439 505 38,000  Level FlightAware
01:32AM 29.3840 -110.7290 312° West 440 506 38,000  Level FlightAware
01:33AM 29.4400 -110.7980 313° West 440 506 38,000  Level FlightAware
01:34AM 29.5030 -110.8780 312° West 441 507 38,000  Level FlightAware
01:35AM 29.5580 -110.9480 312° West 443 510 38,000  Level FlightAware
01:35AM 29.6120 -111.0170 312° West 446 513 38,000  Level FlightAware
01:36AM 29.6740 -111.0940 313° West 447 514 38,000  Level FlightAware
01:37AM 29.7340 -111.1700 312° West 446 513 38,000  Level FlightAware
01:37AM 29.7900 -111.2420 312° West 443 510 38,000  Level FlightAware
01:38AM 29.8510 -111.3190 312° West 441 507 38,000  Level FlightAware
01:39AM 29.9000 -111.3820 312° West 441 507 38,000  Level FlightAware
01:39AM 29.9600 -111.4590 312° West 441 507 38,000  Level FlightAware
01:40AM 30.0200 -111.5350 312° West 441 507 38,000  Level FlightAware
01:41AM 30.0720 -111.6020 312° West 441 507 38,000  Level FlightAware
01:42AM 30.1350 -111.6840 312° West 442 509 38,000  Level FlightAware
01:42AM 30.1870 -111.7500 312° West 442 509 38,000  Level FlightAware
01:43AM 30.2500 -111.8310 312° West 441 507 38,000  Level FlightAware
01:44AM 30.3030 -111.9000 312° West 441 507 38,000  Level FlightAware
01:44AM 30.3640 -111.9790 312° West 440 506 38,000  Level FlightAware
01:45AM 30.4200 -112.0510 312° West 440 506 38,000  Level FlightAware
01:46AM 30.4750 -112.1230 312° West 439 505 38,000  Level FlightAware
01:46AM 30.5330 -112.1990 312° West 439 505 38,000  Level FlightAware
01:47AM 30.5930 -112.2770 312° West 440 506 38,000  Level FlightAware
01:48AM 30.6480 -112.3490 312° West 442 509 38,000  Level FlightAware
01:49AM 30.7010 -112.4180 312° West 443 510 38,000  Level FlightAware
01:49AM 30.7620 -112.4980 312° West 445 512 38,000  Level FlightAware
01:50AM 30.8180 -112.5720 311° West 447 514 38,000  Level FlightAware
01:52AM 30.9480 -112.7430 312° West 444 511 38,000  Level FlightAware
01:52AM 31.0020 -112.8140 312° West 446 513 38,000  Level FlightAware
01:53AM 31.0650 -112.8980 311° West 447 514 38,000  Level FlightAware
01:54AM 31.1190 -112.9700 311° West 448 516 38,000  Level FlightAware
01:54AM 31.1840 -113.0560 311° West 449 517 38,000  Level FlightAware
01:55AM 31.2460 -113.1390 311° West 450 518 38,000  Level FlightAware
01:56AM 31.2880 -113.1950 311° West 450 518 38,000  Level FlightAware
01:56AM 31.3570 -113.2870 311° West 449 517 38,000  Level FlightAware
01:57AM 31.4000 -113.3600 305° West 454 522 38,000  Level FlightAware
01:58AM 31.4670 -113.4810 303° West 450 518 38,000  Level FlightAware
01:59AM 31.5200 -113.5740 304° West 455 524 38,000  Level FlightAware
02:00AM 31.5770 -113.6770 303° West 455 524 38,000  Level FlightAware
02:01AM 31.6390 -113.7860 304° West 454 522 38,000  Level FlightAware
02:01AM 31.6860 -113.8720 303° West 454 522 38,000  Level FlightAware
02:02AM 31.7290 -113.9500 303° West 453 521 38,000  Level FlightAware
02:03AM 31.7900 -114.0610 303° West 452 520 38,000  Level FlightAware
02:04AM 31.8350 -114.1460 302° West 452 520 38,000  Level FlightAware
02:04AM 31.8700 -114.2120 302° West 452 520 38,000  Level FlightAware
02:05AM 31.9130 -114.2930 302° West 452 520 38,000  Level FlightAware
02:06AM 31.9480 -114.3590 302° West 452 520 38,000  Level FlightAware
02:06AM 31.9830 -114.4250 302° West 452 520 38,000  Level FlightAware
02:07AM 32.0260 -114.5070 302° West 452 520 38,000  Level FlightAware
02:08AM 32.0710 -114.5920 302° West 452 520 38,000  Level FlightAware
02:09AM 32.1070 -114.6600 302° West 452 520 38,000  Level FlightAware
02:10AM 32.1630 -114.7650 302° West 452 520 38,000  Level FlightAware
02:10AM 32.2980 -114.9890 306° West 454 522 38,000  Level FlightAware
02:11AM 32.3410 -115.0700 302° West 455 524 38,000  Level FlightAware
02:12AM 32.3840 -115.1500 302° West 456 525 38,000  Level FlightAware
02:12AM 32.4390 -115.2520 303° West 456 525 38,000  Level FlightAware
02:13AM 32.4850 -115.3390 302° West 455 524 38,000  Level FlightAware
02:14AM 32.5340 -115.4300 303° West 454 522 38,000  Level FlightAware
02:14AM 32.5790 -115.5150 302° West 453 521 38,000  Level FlightAware
02:15AM 32.6260 -115.6030 302° West 451 519 38,000  Level FlightAware
02:16AM 32.6720 -115.6900 302° West 450 518 38,000  Level FlightAware
02:17AM 32.7210 -115.7820 302° West 448 516 38,000 -240 Level FlightAware
02:17AM 32.7640 -115.8640 302° West 442 509 37,700 -1,500 Descending FlightAware
02:18AM 32.8120 -115.9550 302° West 441 507 35,900 -2,760 Descending FlightAware
02:19AM 32.8560 -116.0380 302° West 449 517 33,900 -2,700 Descending FlightAware
02:19AM 32.9040 -116.1310 302° West 445 512 32,100 -2,340 Descending FlightAware
02:20AM 32.9460 -116.2110 302° West 438 504 30,700 -2,220 Descending FlightAware
02:21AM 32.9940 -116.3020 302° West 431 496 29,100 -2,220 Descending FlightAware
02:21AM 33.0350 -116.3820 301° West 425 489 27,600 -2,220 Descending FlightAware
02:22AM 33.0790 -116.4660 302° West 417 480 26,100 -2,100 Descending FlightAware
02:23AM 33.1210 -116.5470 302° West 409 471 24,700 -2,160 Descending FlightAware
02:24AM 33.1470 -116.6380 289° West 399 459 23,100 -2,160 Descending FlightAware
02:24AM 33.1580 -116.7260 279° West 392 451 21,700 -2,100 Descending FlightAware
02:25AM 33.1690 -116.8160 278° West 386 444 20,200 -2,100 Descending FlightAware
02:26AM 33.1800 -116.9040 279° West 378 435 18,800 -1,980 Descending FlightAware
02:26AM 33.1900 -116.9860 278° West 370 426 17,500 -2,040 Descending FlightAware
02:27AM 33.2000 -117.0730 278° West 362 417 16,000 -1,980 Descending FlightAware
02:28AM 33.2090 -117.1520 278° West 355 409 14,700 -1,920 Descending FlightAware
02:28AM 33.2190 -117.2330 278° West 347 399 13,400 -1,860 Descending FlightAware
02:29AM 33.2290 -117.3140 278° West 339 390 12,100 -1,020 Descending FlightAware
02:30AM 33.2370 -117.3880 277° West 321 369 12,000 -120 Descending FlightAware
02:30AM 33.2440 -117.4130 289° West 318 366 12,000  Level FlightAware
02:31AM 33.2780 -117.4610 310° West 323 372 12,000  Level FlightAware
02:32AM 33.3310 -117.5220 316° Northwest 322 371 12,000 -420 Level FlightAware
02:32AM 33.3720 -117.5700 316° Northwest 323 372 11,400 -1,080 Descending FlightAware
02:33AM 33.4150 -117.6210 315° West 308 354 10,600 -1,140 Descending FlightAware
02:34AM 33.4580 -117.6710 316° Northwest 293 337 9,800 -1,260 Descending FlightAware
02:34AM 33.4860 -117.7040 315° West 289 333 9,100 -1,500 Descending FlightAware
02:35AM 33.5110 -117.7340 315° West 287 330 8,400 -1,500 Descending FlightAware
02:35AM 33.5240 -117.7480 318° Northwest 284 327 8,100 -1,260 Descending FlightAware
02:35AM 33.5520 -117.7820 315° West 278 320 7,500 -780 Descending FlightAware
02:36AM 33.5740 -117.8080 315° West 270 311 7,400 -360 Descending FlightAware
02:36AM 33.6030 -117.8420 316° Northwest 269 310 7,200 -480 Descending FlightAware
02:37AM 33.6250 -117.8670 317° Northwest 274 315 7,000 -240 Descending FlightAware
02:37AM 33.6490 -117.8960 315° West 270 311 7,000  Level FlightAware
02:38AM 33.6840 -117.9370 316° Northwest 266 306 7,000  Level FlightAware
02:38AM 33.7090 -117.9670 315° West 265 305 7,000  Level FlightAware
02:39AM 33.7420 -118.0060 316° Northwest 264 304 7,000  Level FlightAware
02:39AM 33.7720 -118.0410 316° Northwest 260 299 7,000  Level FlightAware
02:40AM 33.7820 -118.0500 323° Northwest 261 300 7,000 -240 Level FlightAware
02:40AM 33.7990 -118.0560 344° North 256 295 6,900 -1,080 Descending FlightAware
02:40AM 33.8320 -118.0590 356° North 262 302 6,200 -1,380 Descending FlightAware
02:41AM 33.8650 -118.0630 354° North 257 296 5,700 -900 Descending FlightAware
02:41AM 33.9000 -118.0660 356° North 241 277 5,400 -900 Descending FlightAware
02:42AM 33.9460 -118.0760 350° North 220 253 4,600 -1,140 Descending FlightAware
02:42AM 33.9520 -118.0860 306° West 217 250 4,400 -900 Descending FlightAware
02:43AM 33.9640 -118.1160 296° West 204 235 4,000 -900 Descending FlightAware
02:43AM 33.9680 -118.1270 294° West 202 232 3,800 -1,440 Descending FlightAware
02:44AM 33.9730 -118.1760 277° West 217 250 2,700 -1,320 Descending FlightAware
02:44AM 33.9720 -118.1880 264° West 217 250 2,600 -120 Descending FlightAware
02:45AM 33.9650 -118.2510 262° West 198 228 2,600 -360 Level FlightAware
02:45AM 33.9630 -118.2730 264° West 203 234 2,200 -1,380 Descending FlightAware
02:45AM 33.9610 -118.2990 265° West 194 223 1,800 -1,020 Descending FlightAware
02:46AM 33.9580 -118.3280 263° West 171 197 1,300 -960 Descending FlightAware
02:47AM 33.9540 -118.3640 262° West 148 170 700 -720 Descending FlightAware
02:47AM 33.9520 -118.3830 263° West 147 169 400 -480 Descending FlightAware
02:48AM 33.9500 -118.4010 262° West 148 170 200 -240 Descending FlightAware
02:48AM 33.9480 -118.4190 262° West 149 171 200  Level FlightAware
02:56AM 33.9425 -118.4081 121° Southeast  Level Estimated
02:57AM 33.9425 -118.4081 164° South  Level Estimated